Time;durP1;ratioP1;P1;durP2;ratioP2;P2;SDS_P1;SDS_P2;PMS_P1;PMS_P2;Temp;Humidity;BMP_temperature;BMP_pressure;BME280_temperature;BME280_humidity;BME280_pressure;Samples;Min_cycle;Max_cycle;Signal;HPM_P1;HPM_P2
2023/06/16 00:00:14;;;;;;;4.03;2.20;;;;;;;15.60;84.20;100775.00;5192377;28;20475;-74
2023/06/16 00:02:44;;;;;;;4.82;2.33;;;;;;;15.52;83.65;100769.25;5191545;28;20480;-74
2023/06/16 00:05:15;;;;;;;5.90;2.60;;;;;;;15.31;85.66;100775.66;5192998;28;20223;-74
2023/06/16 00:07:45;;;;;;;5.93;2.33;;;;;;;15.10;86.47;100779.34;5195352;28;20033;-75
2023/06/16 00:10:15;;;;;;;4.40;2.20;;;;;;;15.39;84.68;100780.53;5191899;28;20417;-73
2023/06/16 00:12:45;;;;;;;3.47;2.20;;;;;;;15.33;83.76;100781.69;5192379;28;20033;-74
2023/06/16 00:15:16;;;;;;;4.75;2.63;;;;;;;15.40;82.96;100767.25;5192776;28;20283;-72
2023/06/16 00:17:46;;;;;;;10.75;3.17;;;;;;;15.36;83.75;100773.63;5192846;28;20120;-74
2023/06/16 00:20:21;;;;;;;4.35;2.33;;;;;;;15.35;84.33;100771.94;5193333;28;20079;-74
2023/06/16 00:22:51;;;;;;;5.15;2.63;;;;;;;15.06;85.87;100777.81;5193457;28;20465;-76
2023/06/16 00:25:21;;;;;;;4.35;2.20;;;;;;;15.08;83.77;100773.31;5190684;28;20021;-74
2023/06/16 00:27:52;;;;;;;4.20;2.20;;;;;;;14.71;87.39;100769.09;5191732;28;20313;-75
2023/06/16 00:30:22;;;;;;;7.07;2.30;;;;;;;15.03;85.98;100771.84;5191858;28;20082;-74
2023/06/16 00:32:53;;;;;;;5.20;2.42;;;;;;;14.71;86.46;100769.97;5193926;28;20025;-74
2023/06/16 00:35:23;;;;;;;3.80;2.30;;;;;;;14.76;87.94;100775.84;5191167;28;20438;-75
2023/06/16 00:37:53;;;;;;;6.22;2.67;;;;;;;14.68;88.76;100780.66;5193010;28;20099;-75
2023/06/16 00:40:23;;;;;;;4.90;2.63;;;;;;;14.60;88.99;100781.94;5225057;22;20065;-69
2023/06/16 00:42:57;;;;;;;3.80;2.10;;;;;;;14.65;89.55;100785.19;5185897;28;20028;-72
2023/06/16 00:45:29;;;;;;;4.60;2.53;;;;;;;14.75;89.57;100781.19;5201467;28;20033;-72
2023/06/16 00:48:01;;;;;;;4.47;2.22;;;;;;;14.45;88.88;100782.69;5202808;28;20451;-71
2023/06/16 00:50:32;;;;;;;4.55;2.17;;;;;;;14.66;87.85;100782.50;5205230;28;20044;-71
2023/06/16 00:53:03;;;;;;;3.45;2.30;;;;;;;14.75;85.99;100781.19;5210623;28;20028;-71
2023/06/16 00:55:33;;;;;;;4.35;2.70;;;;;;;14.45;88.92;100787.94;5209841;28;20048;-71
2023/06/16 00:58:04;;;;;;;4.97;2.50;;;;;;;14.65;85.93;100786.06;5209134;28;20032;-71
2023/06/16 01:00:35;;;;;;;4.90;2.30;;;;;;;14.70;86.81;100783.19;5209373;28;20048;-71
2023/06/16 01:03:08;;;;;;;4.53;2.30;;;;;;;14.55;86.91;100774.28;5205514;28;20406;-71
2023/06/16 01:05:39;;;;;;;4.30;2.17;;;;;;;14.59;86.42;100777.63;5210058;28;20029;-71
2023/06/16 01:08:21;;;;;;;4.63;2.38;;;;;;;14.35;87.38;100770.88;5208364;28;20036;-71
2023/06/16 01:11:02;;;;;;;4.18;2.60;;;;;;;14.48;87.00;100770.25;5203739;28;20098;-70
2023/06/16 01:13:32;;;;;;;3.60;2.10;;;;;;;14.02;89.76;100773.31;5205714;28;20044;-72
2023/06/16 01:16:05;;;;;;;4.40;2.27;;;;;;;13.84;90.65;100770.66;5212001;28;20033;-69
2023/06/16 01:18:38;;;;;;;4.15;2.40;;;;;;;13.62;92.93;100777.81;5211992;28;20286;-68
2023/06/16 01:21:43;;;;;;;5.47;2.50;;;;;;;13.54;93.98;100778.16;5212256;28;20032;-71
2023/06/16 01:24:18;;;;;;;4.15;2.20;;;;;;;13.85;93.03;100780.25;5210199;28;20093;-72
2023/06/16 01:26:51;;;;;;;5.53;2.30;;;;;;;13.81;91.95;100779.53;5212073;28;20024;-70
2023/06/16 01:29:24;;;;;;;4.78;2.40;;;;;;;14.09;90.55;100777.34;5209477;28;20033;-71
2023/06/16 01:31:59;;;;;;;4.90;2.20;;;;;;;14.04;89.63;100773.22;5212996;28;20468;-71
2023/06/16 01:34:31;;;;;;;5.90;2.20;;;;;;;14.13;87.70;100785.94;5209464;28;20032;-71
2023/06/16 01:37:03;;;;;;;3.45;2.10;;;;;;;14.17;89.76;100774.38;5212255;28;20389;-71
2023/06/16 01:39:34;;;;;;;4.15;2.47;;;;;;;14.05;89.24;100781.03;5211895;28;20048;-71
2023/06/16 01:42:06;;;;;;;4.85;2.72;;;;;;;14.04;89.18;100786.34;5210893;28;20102;-71
2023/06/16 01:44:38;;;;;;;5.03;2.42;;;;;;;14.03;90.88;100779.38;5212399;28;20028;-71
2023/06/16 01:47:08;;;;;;;4.68;2.30;;;;;;;13.94;91.86;100785.09;5210628;28;20075;-71
2023/06/16 01:49:39;;;;;;;4.53;2.47;;;;;;;14.03;90.35;100779.38;5212307;28;20835;-71
2023/06/16 01:52:10;;;;;;;6.53;2.38;;;;;;;14.14;91.66;100787.66;5198296;28;20035;-70
2023/06/16 01:54:40;;;;;;;5.57;2.70;;;;;;;14.24;90.57;100778.44;5213093;28;20133;-71
2023/06/16 01:57:11;;;;;;;3.83;2.42;;;;;;;14.34;91.30;100779.69;5211288;28;20037;-70
2023/06/16 01:59:41;;;;;;;4.72;2.60;;;;;;;14.55;90.40;100774.28;5213138;28;20083;-71
2023/06/16 02:02:16;;;;;;;4.70;2.67;;;;;;;14.23;90.93;100780.22;5210650;28;20025;-71
2023/06/16 02:04:50;;;;;;;4.15;2.33;;;;;;;13.93;91.22;100788.63;5212225;28;20437;-70
2023/06/16 02:07:30;;;;;;;4.03;2.75;;;;;;;13.86;92.91;100792.44;5210306;28;20017;-69
2023/06/16 02:10:03;;;;;;;3.75;2.28;;;;;;;14.14;91.04;100782.38;5207650;28;20032;-70
2023/06/16 02:12:33;;;;;;;4.65;2.80;;;;;;;14.19;91.16;100777.78;5211983;28;20507;-71
2023/06/16 02:15:05;;;;;;;7.13;3.40;;;;;;;14.26;90.41;100772.16;5212057;28;20048;-71
2023/06/16 02:17:35;;;;;;;4.53;2.55;;;;;;;14.24;89.66;100781.06;5198584;28;20036;-70
2023/06/16 02:20:07;;;;;;;4.38;2.72;;;;;;;14.12;91.42;100784.25;5210817;28;20027;-71
2023/06/16 02:22:37;;;;;;;4.03;2.17;;;;;;;14.21;89.25;100781.19;5213130;28;20521;-71
2023/06/16 02:25:08;;;;;;;3.80;2.30;;;;;;;14.00;90.63;100776.91;5202856;28;20031;-71
2023/06/16 02:27:39;;;;;;;5.53;2.55;;;;;;;14.10;91.33;100781.66;5204560;28;20039;-72
2023/06/16 02:30:13;;;;;;;4.88;2.47;;;;;;;14.01;91.24;100771.59;5210233;28;20028;-71
2023/06/16 02:32:43;;;;;;;5.72;2.90;;;;;;;14.06;90.95;100774.03;5209387;28;20610;-70
2023/06/16 02:35:15;;;;;;;7.65;2.55;;;;;;;13.98;93.05;100770.88;5202511;28;20030;-71
2023/06/16 02:37:52;;;;;;;5.05;2.95;;;;;;;13.51;97.42;100780.91;5208673;28;20025;-71
2023/06/16 02:40:23;;;;;;;4.72;2.65;;;;;;;13.53;97.86;100779.06;5206035;28;20025;-71
2023/06/16 02:42:54;;;;;;;4.28;2.80;;;;;;;13.57;98.63;100791.13;5206494;28;20271;-71
2023/06/16 02:45:24;;;;;;;6.03;2.80;;;;;;;13.64;97.47;100791.72;5193802;28;20369;-69
2023/06/16 02:47:55;;;;;;;4.55;2.55;;;;;;;13.66;97.21;100790.75;5208867;28;20044;-71
2023/06/16 02:50:25;;;;;;;6.20;2.88;;;;;;;13.80;97.38;100788.34;5206343;28;20025;-69
2023/06/16 02:52:57;;;;;;;3.33;2.13;;;;;;;13.67;97.92;100781.06;5206320;28;20037;-71
2023/06/16 02:55:27;;;;;;;4.18;2.53;;;;;;;13.89;96.13;100781.84;5207540;28;20033;-71
2023/06/16 02:57:58;;;;;;;6.03;2.58;;;;;;;14.01;92.91;100775.97;5208604;28;20502;-70
2023/06/16 03:00:28;;;;;;;4.55;2.60;;;;;;;13.67;93.95;100792.44;5209379;28;20284;-71
2023/06/16 03:02:59;;;;;;;9.73;2.30;;;;;;;13.72;96.31;100790.47;5205937;28;20041;-70
2023/06/16 03:05:31;;;;;;;4.95;2.10;;;;;;;13.73;95.99;100792.16;5210882;28;20090;-72
2023/06/16 03:08:01;;;;;;;5.93;3.20;;;;;;;13.66;96.28;100803.00;5207476;28;20133;-71
2023/06/16 03:10:32;;;;;;;5.15;2.78;;;;;;;13.69;95.80;100802.88;5197058;28;20403;-71
2023/06/16 03:13:02;;;;;;;3.95;2.40;;;;;;;13.53;96.46;100800.06;5207634;28;20052;-71
2023/06/16 03:15:32;;;;;;;4.43;2.50;;;;;;;13.73;96.90;100799.22;5210335;28;20033;-71
2023/06/16 03:18:03;;;;;;;4.82;3.00;;;;;;;13.53;98.99;100794.81;5205111;28;20033;-71
2023/06/16 03:20:34;;;;;;;5.57;2.60;;;;;;;13.90;95.19;100801.94;5207655;28;20495;-71
2023/06/16 03:23:05;;;;;;;5.88;2.60;;;;;;;14.07;93.18;100796.75;5205986;28;20490;-71
2023/06/16 03:25:36;;;;;;;4.03;2.53;;;;;;;14.18;92.24;100799.75;5207309;28;20036;-69
2023/06/16 03:28:07;;;;;;;5.90;2.58;;;;;;;14.22;93.23;100791.66;5203476;28;20033;-70
2023/06/16 03:30:37;;;;;;;8.35;3.08;;;;;;;14.19;92.32;100804.06;5209639;28;20021;-71
2023/06/16 03:33:07;;;;;;;5.20;2.40;;;;;;;14.18;92.14;100800.63;5207185;28;20032;-71
2023/06/16 03:35:38;;;;;;;4.38;2.58;;;;;;;14.23;92.70;100797.78;5206511;28;20033;-71
2023/06/16 03:38:08;;;;;;;10.40;2.60;;;;;;;14.22;92.92;100796.06;5204994;28;20498;-71
2023/06/16 03:40:38;;;;;;;5.50;2.78;;;;;;;14.23;93.55;100797.78;5207418;28;20398;-71
2023/06/16 03:43:09;;;;;;;4.38;2.50;;;;;;;14.23;94.46;100801.25;5205250;28;20112;-71
2023/06/16 03:45:39;;;;;;;5.32;2.60;;;;;;;13.89;97.49;100797.59;5207628;28;20095;-71
2023/06/16 03:48:09;;;;;;;5.03;2.63;;;;;;;13.89;98.12;100811.56;5207706;28;20025;-71
2023/06/16 03:50:39;;;;;;;5.15;2.88;;;;;;;13.97;96.35;100800.72;5210018;28;20036;-71
2023/06/16 03:53:10;;;;;;;4.30;2.90;;;;;;;14.00;99.77;100805.81;5192450;28;20037;-71
2023/06/16 03:55:40;;;;;;;5.90;3.00;;;;;;;13.80;100.00;100806.75;5207298;28;20044;-71
2023/06/16 03:58:13;;;;;;;4.60;2.80;;;;;;;13.74;100.00;100808.78;5206264;28;20041;-71
2023/06/16 04:00:44;;;;;;;4.20;2.78;;;;;;;13.80;100.00;100814.63;5204526;28;20028;-70
2023/06/16 04:03:15;;;;;;;4.60;2.85;;;;;;;14.14;100.00;100809.53;5204472;28;20060;-71
2023/06/16 04:05:45;;;;;;;6.70;3.05;;;;;;;14.16;100.00;100805.09;5205106;28;20175;-70
2023/06/16 04:08:15;;;;;;;4.00;2.80;;;;;;;14.25;100.00;100816.97;5206110;28;20318;-69
2023/06/16 04:10:46;;;;;;;5.13;3.10;;;;;;;14.06;100.00;100822.16;5209539;28;20509;-71
2023/06/16 04:13:16;;;;;;;5.03;3.47;;;;;;;14.23;100.00;100810.94;5207686;28;20033;-69
2023/06/16 04:15:46;;;;;;;4.40;2.90;;;;;;;14.31;100.00;100820.16;5208548;28;20494;-71
2023/06/16 04:18:17;;;;;;;6.75;3.15;;;;;;;14.21;97.56;100818.88;5201902;28;20030;-70
2023/06/16 04:20:47;;;;;;;5.53;3.00;;;;;;;14.14;100.00;100822.69;5210827;28;20035;-72
2023/06/16 04:23:17;;;;;;;4.72;2.80;;;;;;;14.39;100.00;100825.91;5203204;28;20557;-70
2023/06/16 04:25:48;;;;;;;5.47;3.08;;;;;;;14.19;100.00;100811.97;5193786;28;20530;-70
2023/06/16 04:28:21;;;;;;;6.22;3.00;;;;;;;14.22;100.00;100822.38;5207904;28;20483;-71
2023/06/16 04:30:51;;;;;;;5.57;3.08;;;;;;;14.30;100.00;100836.00;5203803;28;20114;-71
2023/06/16 04:33:22;;;;;;;5.95;3.40;;;;;;;14.46;100.00;100826.47;5207328;28;20026;-71
2023/06/16 04:35:53;;;;;;;8.43;3.90;;;;;;;14.31;100.00;100825.41;5204207;28;20030;-71
2023/06/16 04:38:25;;;;;;;4.97;3.00;;;;;;;14.22;100.00;100825.81;5207976;28;20033;-71
2023/06/16 04:40:55;;;;;;;5.47;3.30;;;;;;;14.32;100.00;100828.88;5203058;28;20048;-71
2023/06/16 04:43:26;;;;;;;5.20;3.30;;;;;;;14.34;100.00;100827.03;5206911;28;20376;-71
2023/06/16 04:45:58;;;;;;;7.07;3.55;;;;;;;14.25;100.00;100827.47;5205672;28;20082;-71
2023/06/16 04:48:28;;;;;;;7.65;3.50;;;;;;;14.31;100.00;100827.19;5202182;28;20029;-71
2023/06/16 04:50:58;;;;;;;6.28;3.30;;;;;;;14.55;100.00;100831.28;5203855;28;20356;-71
2023/06/16 04:53:29;;;;;;;4.88;3.08;;;;;;;14.70;100.00;100838.44;5210526;28;20100;-71
2023/06/16 04:55:59;;;;;;;5.30;3.08;;;;;;;14.62;100.00;100843.22;5207795;28;20040;-71
2023/06/16 04:58:30;;;;;;;6.15;3.40;;;;;;;14.65;100.00;100848.34;5208565;28;20072;-71
2023/06/16 05:01:00;;;;;;;8.75;3.40;;;;;;;14.28;100.00;100846.56;5207211;28;20057;-70
2023/06/16 05:03:31;;;;;;;5.32;3.53;;;;;;;14.21;100.00;100839.03;5208108;28;20431;-72
2023/06/16 05:06:01;;;;;;;6.90;3.88;;;;;;;14.45;100.00;100846.63;5204407;28;20075;-71
2023/06/16 05:08:32;;;;;;;7.18;3.50;;;;;;;14.64;100.00;100844.00;5206093;28;20060;-71
2023/06/16 05:11:02;;;;;;;6.63;3.08;;;;;;;14.81;100.00;100847.53;5203535;28;20469;-71
2023/06/16 05:13:33;;;;;;;5.07;3.10;;;;;;;14.83;100.00;100843.88;5208147;28;20033;-72
2023/06/16 05:16:03;;;;;;;6.15;3.50;;;;;;;14.73;100.00;100846.22;5200247;28;20029;-71
2023/06/16 05:18:34;;;;;;;8.80;3.40;;;;;;;14.92;100.00;100838.19;5189787;28;20494;-71
2023/06/16 05:21:04;;;;;;;4.55;3.15;;;;;;;15.05;100.00;100841.06;5208328;28;20469;-71
2023/06/16 05:23:36;;;;;;;6.57;3.45;;;;;;;14.95;100.00;100845.94;5206690;28;20127;-71
2023/06/16 05:26:06;;;;;;;5.45;3.67;;;;;;;15.15;100.00;100853.69;5203315;28;20021;-70
2023/06/16 05:28:37;;;;;;;6.10;3.80;;;;;;;15.16;100.00;100847.50;5206089;28;20028;-71
2023/06/16 05:31:07;;;;;;;9.45;3.70;;;;;;;15.18;100.00;100844.81;5205360;28;20061;-71
2023/06/16 05:33:37;;;;;;;8.45;3.92;;;;;;;15.15;100.00;100837.06;5209415;28;20040;-71
2023/06/16 05:36:08;;;;;;;7.28;3.40;;;;;;;15.04;100.00;100845.47;5205679;28;20479;-72
2023/06/16 05:38:38;;;;;;;7.70;3.17;;;;;;;15.03;100.00;100842.91;5209122;28;20040;-71
2023/06/16 05:41:08;;;;;;;6.15;3.88;;;;;;;14.81;100.00;100844.03;5201604;28;20406;-70
2023/06/16 05:43:39;;;;;;;5.25;3.50;;;;;;;14.99;100.00;100836.94;5174968;28;20168;-71
2023/06/16 05:46:09;;;;;;;6.55;4.22;;;;;;;15.07;100.00;100844.47;5206433;28;20021;-71
2023/06/16 05:48:39;;;;;;;6.45;3.80;;;;;;;15.20;100.00;100848.19;5207202;28;20163;-71
2023/06/16 05:51:10;;;;;;;6.97;3.80;;;;;;;15.21;100.00;100840.22;5206412;28;20103;-70
2023/06/16 05:53:41;;;;;;;7.22;3.90;;;;;;;15.22;100.00;100844.53;5209218;28;20039;-71
2023/06/16 05:56:11;;;;;;;5.82;3.80;;;;;;;15.20;100.00;100846.41;5205740;28;20044;-71
2023/06/16 05:58:42;;;;;;;8.27;4.05;;;;;;;15.17;100.00;100854.47;5207250;28;20106;-71
2023/06/16 06:01:13;;;;;;;6.15;4.10;;;;;;;15.28;100.00;100851.28;5195022;28;20134;-71
2023/06/16 06:03:45;;;;;;;7.30;4.00;;;;;;;15.31;100.00;100852.03;5198520;28;20036;-69
2023/06/16 06:06:15;;;;;;;5.90;3.58;;;;;;;15.37;100.00;100842.97;5196383;28;20495;-71
2023/06/16 06:08:45;;;;;;;5.15;3.60;;;;;;;15.58;100.00;100844.50;5199203;28;20044;-71
2023/06/16 06:11:16;;;;;;;6.72;3.70;;;;;;;15.73;100.00;100834.00;5208860;28;20439;-69
2023/06/16 06:13:46;;;;;;;8.10;4.00;;;;;;;15.82;100.00;100828.25;5199834;28;20029;-69
2023/06/16 06:16:17;;;;;;;7.55;4.40;;;;;;;15.79;100.00;100832.84;5209514;28;20025;-71
2023/06/16 06:18:50;;;;;;;8.90;4.85;;;;;;;16.07;100.00;100822.53;5210831;28;20025;-70
2023/06/16 06:21:21;;;;;;;7.03;4.60;;;;;;;16.31;100.00;100827.31;5208843;28;20360;-71
2023/06/16 06:23:52;;;;;;;9.27;4.18;;;;;;;16.54;100.00;100824.28;5187068;28;20055;-70
2023/06/16 06:26:22;;;;;;;7.07;4.60;;;;;;;16.60;100.00;100831.03;5208522;28;20079;-71
2023/06/16 06:28:53;;;;;;;8.55;5.38;;;;;;;16.89;100.00;100820.50;5211614;28;20086;-70
2023/06/16 06:31:23;;;;;;;8.90;4.78;;;;;;;16.69;100.00;100817.31;5197286;28;20502;-71
2023/06/16 06:33:54;;;;;;;6.90;4.40;;;;;;;16.90;100.00;100814.28;5212432;28;20280;-71
2023/06/16 06:36:26;;;;;;;9.95;4.50;;;;;;;16.89;100.00;100812.59;5206131;28;20068;-70
2023/06/16 06:41:48;;;;;;;10.57;4.53;;;;;;;17.52;100.00;100814.13;5221578;28;20157;-72
2023/06/16 06:44:19;;;;;;;8.23;5.00;;;;;;;17.90;100.00;100812.66;5229268;28;20307;-73
2023/06/16 06:46:49;;;;;;;6.07;4.32;;;;;;;18.30;100.00;100810.09;5214851;28;20035;-73
2023/06/16 06:49:19;;;;;;;8.40;4.30;;;;;;;18.47;100.00;100816.94;5211179;28;20025;-73
2023/06/16 06:51:51;;;;;;;9.23;4.60;;;;;;;17.98;99.16;100815.69;5216784;28;20387;-73
2023/06/16 06:54:22;;;;;;;8.77;3.97;;;;;;;18.96;97.97;100814.50;5216472;28;20111;-73
2023/06/16 06:56:52;;;;;;;6.90;3.35;;;;;;;18.59;95.30;100819.69;5217511;28;20546;-73
2023/06/16 06:59:22;;;;;;;7.05;3.78;;;;;;;18.50;96.26;100825.56;5218410;28;20108;-73
2023/06/16 07:01:52;;;;;;;5.75;3.58;;;;;;;18.75;94.76;100823.88;5213666;28;20483;-73
2023/06/16 07:04:23;;;;;;;8.87;4.27;;;;;;;18.74;94.33;100827.47;5218312;28;20025;-73
2023/06/16 07:06:53;;;;;;;6.07;3.70;;;;;;;18.39;98.89;100833.34;5215145;28;20279;-74
2023/06/16 07:09:24;;;;;;;9.23;3.80;;;;;;;17.97;100.00;100819.28;5217471;28;20024;-73
2023/06/16 07:11:54;;;;;;;6.82;3.47;;;;;;;17.70;100.00;100831.53;5217950;28;20107;-72
2023/06/16 07:14:26;;;;;;;5.75;3.58;;;;;;;17.49;100.00;100835.47;5217921;28;20393;-73
2023/06/16 07:16:57;;;;;;;7.22;3.33;;;;;;;17.62;100.00;100833.78;5215425;28;20020;-74
2023/06/16 07:19:28;;;;;;;5.22;3.45;;;;;;;17.33;100.00;100838.09;5216118;28;20018;-72
2023/06/16 07:22:00;;;;;;;6.88;3.70;;;;;;;17.41;100.00;100846.50;5213606;28;20028;-73
2023/06/16 07:24:31;;;;;;;7.57;3.65;;;;;;;17.23;100.00;100841.38;5217780;28;20021;-73
2023/06/16 07:27:02;;;;;;;9.48;4.70;;;;;;;17.11;100.00;100847.41;5215485;28;20035;-73
2023/06/16 07:29:32;;;;;;;10.05;4.20;;;;;;;17.10;100.00;100846.53;5218734;28;20033;-73
2023/06/16 07:32:03;;;;;;;6.30;3.65;;;;;;;17.22;100.00;100848.47;5213442;28;20076;-73
2023/06/16 07:34:33;;;;;;;12.07;4.03;;;;;;;17.17;100.00;100844.41;5213961;28;20514;-72
2023/06/16 07:37:04;;;;;;;6.70;3.92;;;;;;;17.35;100.00;100836.25;5215624;28;20021;-73
2023/06/16 07:39:34;;;;;;;6.03;3.85;;;;;;;17.49;100.00;100832.81;5216601;28;20592;-73
2023/06/16 07:42:05;;;;;;;7.80;4.22;;;;;;;17.60;100.00;100830.38;5214197;28;20283;-73
2023/06/16 07:44:38;;;;;;;6.55;3.95;;;;;;;18.07;100.00;100825.66;5218051;28;20080;-72
2023/06/16 07:47:10;;;;;;;8.23;4.22;;;;;;;18.68;100.00;100805.81;5217509;28;20187;-71
2023/06/16 07:49:40;;;;;;;7.28;4.57;;;;;;;18.54;100.00;100810.31;5216809;28;20025;-74
2023/06/16 07:52:11;;;;;;;8.13;4.20;;;;;;;19.91;96.95;100810.63;5214631;28;20066;-73
2023/06/16 07:54:41;;;;;;;8.65;3.90;;;;;;;20.61;93.73;100810.84;5217810;28;20025;-74
2023/06/16 07:57:12;;;;;;;6.50;3.47;;;;;;;21.96;87.60;100803.09;5214885;28;20029;-72
2023/06/16 07:59:42;;;;;;;7.55;3.65;;;;;;;21.90;85.28;100808.91;5217983;28;20275;-71
2023/06/16 08:02:12;;;;;;;8.07;3.77;;;;;;;22.13;83.02;100803.47;5215072;28;20108;-71
2023/06/16 08:04:43;;;;;;;6.22;3.05;;;;;;;21.60;84.30;100801.44;5214215;28;20279;-71
2023/06/16 08:07:13;;;;;;;5.55;3.75;;;;;;;20.89;88.00;100807.88;5212935;28;20051;-71
2023/06/16 08:09:43;;;;;;;7.55;3.60;;;;;;;20.26;88.59;100807.22;5217471;28;20017;-71
2023/06/16 08:12:13;;;;;;;6.95;3.38;;;;;;;20.36;87.66;100810.94;5212582;28;20483;-71
2023/06/16 08:14:44;;;;;;;6.60;3.10;;;;;;;20.12;93.65;100807.34;5216579;28;20053;-71
2023/06/16 08:17:15;;;;;;;4.70;3.07;;;;;;;20.36;89.01;100808.28;5207313;28;20268;-71
2023/06/16 08:19:45;;;;;;;9.27;3.88;;;;;;;19.80;92.47;100808.72;5217850;28;20306;-71
2023/06/16 08:22:16;;;;;;;7.63;3.30;;;;;;;19.60;93.19;100817.22;5213176;28;20182;-70
2023/06/16 08:24:46;;;;;;;9.30;3.75;;;;;;;19.38;97.52;100814.34;5217034;28;20021;-70
2023/06/16 08:27:17;;;;;;;7.55;3.60;;;;;;;19.86;95.77;100813.63;5208897;28;20116;-71
2023/06/16 08:29:47;;;;;;;7.75;3.63;;;;;;;19.75;98.71;100812.69;5209342;28;20028;-71
2023/06/16 08:32:17;;;;;;;8.07;3.80;;;;;;;19.85;94.45;100819.88;5207349;28;20029;-71
2023/06/16 08:34:48;;;;;;;10.18;4.00;;;;;;;19.49;99.65;100826.88;5205172;28;20083;-70
2023/06/16 08:37:18;;;;;;;10.07;3.80;;;;;;;20.02;95.88;100830.22;5213681;28;20477;-71
2023/06/16 08:39:48;;;;;;;11.75;3.97;;;;;;;19.94;96.10;100816.56;5212304;28;20029;-69
2023/06/16 08:42:20;;;;;;;8.65;4.10;;;;;;;20.00;93.75;100818.81;5205556;28;20024;-73
2023/06/16 08:44:53;;;;;;;6.80;3.63;;;;;;;19.94;95.90;100819.22;5207560;28;20009;-74
2023/06/16 08:47:25;;;;;;;6.00;3.42;;;;;;;19.82;94.62;100820.06;5210551;28;20025;-73
2023/06/16 08:49:56;;;;;;;8.50;3.90;;;;;;;19.88;92.69;100817.00;5214158;28;20502;-73
2023/06/16 08:52:29;;;;;;;5.95;3.80;;;;;;;19.67;95.61;100826.47;5208303;28;20033;-73
2023/06/16 08:55:01;;;;;;;5.95;3.58;;;;;;;19.85;98.57;100821.69;5214373;28;20032;-74
2023/06/16 08:57:35;;;;;;;6.22;3.58;;;;;;;20.01;94.49;100820.50;5212418;28;20032;-73
2023/06/16 09:00:09;;;;;;;6.40;3.80;;;;;;;19.91;95.42;100814.13;5212715;28;20367;-73
2023/06/16 09:02:41;;;;;;;6.53;3.40;;;;;;;19.69;93.20;100827.22;5213120;28;20036;-73
2023/06/16 09:05:11;;;;;;;6.30;3.33;;;;;;;19.82;96.21;100821.91;5210025;28;20029;-73
2023/06/16 09:07:44;;;;;;;6.47;3.33;;;;;;;19.98;98.25;100815.41;5203964;28;20029;-73
2023/06/16 09:10:14;;;;;;;5.30;3.30;;;;;;;19.66;99.77;100814.16;5205355;28;20025;-73
2023/06/16 09:12:51;;;;;;;6.72;3.13;;;;;;;19.64;97.82;100821.34;5205666;28;20502;-73
2023/06/16 09:15:22;;;;;;;6.43;3.38;;;;;;;19.57;96.17;100817.44;5206532;28;20159;-73
2023/06/16 09:17:53;;;;;;;6.07;3.10;;;;;;;19.75;96.17;100815.34;5205176;28;20456;-73
2023/06/16 09:20:23;;;;;;;7.80;3.78;;;;;;;19.73;98.29;100814.56;5204383;28;20040;-73
2023/06/16 09:23:04;;;;;;;5.30;2.88;;;;;;;19.29;94.13;100817.59;5212393;28;20509;-73
2023/06/16 09:25:35;;;;;;;5.38;3.22;;;;;;;19.74;93.16;100809.16;5204317;28;20454;-73
2023/06/16 09:28:08;;;;;;;6.65;2.80;;;;;;;20.00;92.38;100816.16;5211527;28;20044;-73
2023/06/16 09:30:38;;;;;;;6.75;3.50;;;;;;;19.68;96.47;100820.22;5208514;28;20398;-73
2023/06/16 09:33:09;;;;;;;6.22;3.22;;;;;;;19.76;93.25;100819.69;5211376;28;20032;-73
2023/06/16 09:35:41;;;;;;;4.93;3.22;;;;;;;19.99;96.19;100818.91;5212378;28;20507;-73
2023/06/16 09:38:11;;;;;;;6.20;3.25;;;;;;;20.11;93.68;100818.09;5214579;28;20021;-74
2023/06/16 09:40:42;;;;;;;6.10;3.13;;;;;;;20.62;92.17;100804.56;5214380;28;20040;-73
2023/06/16 09:43:12;;;;;;;5.18;3.28;;;;;;;20.51;94.22;100804.47;5215450;28;20052;-73
2023/06/16 09:45:45;;;;;;;6.97;3.00;;;;;;;20.92;95.89;100797.03;5216414;28;20078;-74
2023/06/16 09:48:16;;;;;;;6.30;3.40;;;;;;;20.87;94.71;100794.69;5214775;28;20370;-73
2023/06/16 09:50:51;;;;;;;5.77;3.30;;;;;;;20.62;97.54;100801.06;5216789;28;20163;-73
2023/06/16 09:53:22;;;;;;;5.25;3.05;;;;;;;20.88;95.37;100792.91;5214133;28;20344;-73
2023/06/16 09:55:55;;;;;;;11.43;3.22;;;;;;;20.98;93.16;100783.25;5209713;28;20021;-73
2023/06/16 09:58:25;;;;;;;5.22;2.92;;;;;;;21.73;89.03;100780.13;5217295;28;20444;-74
2023/06/16 10:00:56;;;;;;;5.13;2.83;;;;;;;21.30;89.91;100784.34;5215338;28;20111;-73
2023/06/16 10:03:30;;;;;;;6.65;3.10;;;;;;;21.51;90.87;100782.69;5216102;28;20021;-74
2023/06/16 10:06:04;;;;;;;5.20;3.13;;;;;;;21.26;91.79;100785.53;5213466;28;20057;-74
2023/06/16 10:08:34;;;;;;;7.45;3.45;;;;;;;21.50;88.81;100775.69;5213338;28;20017;-74
2023/06/16 10:11:04;;;;;;;5.85;3.05;;;;;;;21.03;90.31;100781.13;5215390;28;20032;-74
2023/06/16 10:13:37;;;;;;;5.20;2.70;;;;;;;21.27;91.19;100777.44;5217535;28;20349;-74
2023/06/16 10:16:12;;;;;;;4.72;2.70;;;;;;;21.15;90.36;100772.22;5214796;28;20508;-73
2023/06/16 10:18:42;;;;;;;3.80;2.65;;;;;;;21.09;92.54;100768.19;5214799;28;20037;-73
2023/06/16 10:21:13;;;;;;;5.05;2.67;;;;;;;21.33;90.99;100770.81;5212547;28;20029;-73
2023/06/16 10:23:44;;;;;;;5.13;2.90;;;;;;;21.46;89.35;100766.25;5218303;28;20033;-74
2023/06/16 10:26:15;;;;;;;5.00;2.40;;;;;;;21.68;88.43;100764.50;5213196;28;20028;-73
2023/06/16 10:28:46;;;;;;;4.20;2.35;;;;;;;21.62;86.92;100756.13;5214705;28;20041;-74
2023/06/16 10:31:18;;;;;;;5.93;2.00;;;;;;;22.07;82.66;100763.19;5216012;28;20926;-74
2023/06/16 10:33:55;;;;;;;3.40;1.88;;;;;;;22.04;82.36;100758.06;5218005;28;20045;-73
2023/06/16 10:36:31;;;;;;;2.90;1.80;;;;;;;21.99;81.14;100752.28;5214040;28;20122;-73
2023/06/16 10:39:16;;;;;;;4.18;2.00;;;;;;;21.81;80.41;100751.94;5217321;28;20063;-74
2023/06/16 10:41:54;;;;;;;2.78;2.03;;;;;;;21.84;79.81;100750.81;5212390;28;20020;-73
2023/06/16 10:44:29;;;;;;;6.45;2.00;;;;;;;21.60;79.44;100748.25;5216241;28;20051;-74
2023/06/16 10:47:25;;;;;;;4.07;2.10;;;;;;;21.99;82.42;100754.94;5215752;28;20021;-74
2023/06/16 10:50:00;;;;;;;4.38;2.42;;;;;;;22.58;78.28;100748.34;5211864;28;20029;-74
2023/06/16 10:52:33;;;;;;;5.20;2.20;;;;;;;22.63;77.91;100757.63;5212519;28;20044;-73
2023/06/16 10:55:33;;;;;;;2.67;1.85;;;;;;;22.85;77.83;100745.06;5217076;28;20074;-75
2023/06/16 10:58:16;;;;;;;3.85;2.03;;;;;;;23.00;77.94;100748.28;5212725;28;20099;-75
2023/06/16 11:00:56;;;;;;;4.32;2.75;;;;;;;23.06;74.81;100745.09;5213374;28;20025;-74
2023/06/16 11:03:37;;;;;;;6.20;2.83;;;;;;;22.79;75.12;100744.72;5211120;28;20029;-74
2023/06/16 11:06:08;;;;;;;5.35;2.40;;;;;;;22.54;75.11;100746.88;5203280;28;20082;-74
2023/06/16 11:08:50;;;;;;;4.55;2.40;;;;;;;22.55;76.49;100737.91;5207842;28;20025;-74
2023/06/16 11:11:20;;;;;;;5.75;2.72;;;;;;;22.56;77.77;100742.28;5211522;28;20083;-74
2023/06/16 11:13:52;;;;;;;3.95;2.38;;;;;;;22.34;76.94;100734.31;5211280;28;20052;-74
2023/06/16 11:16:23;;;;;;;4.70;2.55;;;;;;;22.31;80.81;100740.75;5211525;28;20046;-74
2023/06/16 11:18:55;;;;;;;3.42;2.40;;;;;;;22.22;79.74;100740.66;5212511;28;20506;-74
2023/06/16 11:21:30;;;;;;;4.50;2.35;;;;;;;22.61;79.99;100737.41;5213368;28;20176;-74
2023/06/16 11:24:13;;;;;;;6.00;2.50;;;;;;;22.51;75.57;100736.47;5217347;28;20021;-74
2023/06/16 11:26:43;;;;;;;3.95;2.42;;;;;;;22.43;79.13;100736.25;5213911;28;20048;-73
2023/06/16 11:29:13;;;;;;;6.00;2.58;;;;;;;22.23;76.49;100737.00;5216675;28;20017;-74
2023/06/16 11:31:44;;;;;;;5.15;2.70;;;;;;;22.57;77.77;100739.47;5216267;28;20017;-73
2023/06/16 11:34:15;;;;;;;6.43;3.15;;;;;;;22.64;74.76;100740.69;5213368;28;20088;-73
2023/06/16 11:36:47;;;;;;;6.65;2.92;;;;;;;22.55;75.46;100740.56;5213642;28;20021;-73
2023/06/16 11:39:17;;;;;;;5.25;3.20;;;;;;;22.45;76.52;100745.81;5214119;28;20063;-72
2023/06/16 11:41:53;;;;;;;6.25;2.83;;;;;;;22.68;74.96;100729.63;5208082;28;20025;-73
2023/06/16 11:44:24;;;;;;;4.45;2.72;;;;;;;22.81;73.72;100735.63;5216051;28;20048;-74